Latest Coastal Weather Observations for Maatsuyker Island

IDT60701

Issued at 8:32 am EST Friday 19 August 2022 (issued every 10 minutes, with the page automatically refreshed every 10 minutes)

About coastal observations | Map of coastal stations | Coastal observations for TAS | Marine services | Other Formats
Station Details ID: 094041 Name: MAATSUYKER ISLAND LIGHTHOUSE Lat: -43.66 Lon: 146.27 Height: 146.5 m
Data from the previous 72 hours. | See also: Recent months at Maatsuyker Island
Date/Time
EST
Wind Sea
Height
m
Swell Vis
km
Cloud Weather Temp
°C
Press
MSL
hPa
Rain since
9am
mm
Dir  Spd
kts
Gust
kts
Height
m
Period
s
Dir
19/08:30am NW 27 39 - - - - - - - 7.4 1003.7 26.4
19/08:04am NW 29 42 - - - - - - - 8.4 1003.1 26.2
19/08:01am NW 29 42 - - - - - - - 8.4 - 26.2
19/08:00am NW 29 36 - - - - - - - 8.8 1003.3 26.2
19/07:53am NW 25 35 - - - - - - - 8.8 1003.3 26.2
19/07:50am NW 25 35 - - - - - - - 8.8 - 26.2
19/07:30am NW 25 32 - - - - - - - 8.4 1003.2 26.2
19/07:26am NW 27 33 - - - - - - - 8.3 1003.2 26.2
19/07:21am NW 25 30 - - - - - - - 8.2 - 26.2
19/07:00am NW 35 41 - - - - - - - 8.6 1002.1 26.2
19/06:30am NW 34 39 - - - - - - - 8.2 1002.1 26.2
19/06:00am NW 39 46 3 3.5 13 SW 1 Mostly cloudy Recent precip. 7.4 1001.9 26.2
19/05:30am WNW 38 44 - - - - - - - 7.3 1001.7 26.2
19/05:00am NW 39 45 - - - - - - - 8.2 1000.8 26.2
19/04:30am NW 37 41 - - - - - - - 7.9 1001.3 26.2
19/04:00am NW 36 41 - - - - - - - 7.4 1000.8 26.2
19/03:39am WNW 45 55 - - - - - - - 6.5 1000.4 26.0
19/03:36am WNW 45 55 - - - - - - - 6.5 - 26.0
19/03:33am WNW 40 55 - - - - - - - 6.2 999.7 25.8
19/03:31am WNW 37 50 - - - - - - - 7.0 1000.0 25.8
19/03:30am WNW 36 45 - - - - - - - 6.2 1000.3 25.8
19/03:29am WNW 47 51 - - - - - - - 6.8 - 25.8
19/03:12am NW 34 44 - - - - - - - 8.3 1000.2 25.0
19/03:09am NW 34 44 - - - - - - - 8.3 - 25.0
19/03:00am NW 38 45 - - - - - - - 8.7 1000.2 25.0
19/02:45am NW 35 45 - - - - - - - 9.0 999.5 25.0
19/02:42am NW 35 45 - - - - - - - 9.0 - 25.0
19/02:30am NW 35 40 - - - - - - - 9.1 999.6 25.0
19/02:12am NW 33 39 - - - - - - - 8.6 999.6 25.0
19/02:11am NW 39 41 - - - - - - - 8.5 - 25.0
19/02:01am NW 25 35 - - - - - - - 8.5 1000.1 25.0
19/02:00am NW 24 33 - - - - - - - 8.5 1000.1 25.0
19/01:41am NW 29 39 - - - - - - - 7.3 1000.1 24.4
19/01:38am NW 29 39 - - - - - - - 7.3 - 24.4
19/01:30am NW 30 37 - - - - - - - 7.7 999.5 24.4
19/01:00am NW 32 41 - - - - - - - 8.6 999.6 24.2
19/12:32am NW 30 40 - - - - - - - 8.1 999.8 24.2
19/12:30am NW 32 40 - - - - - - - 8.3 999.6 24.2
19/12:29am NW 30 40 - - - - - - - 8.1 - 24.2
19/12:00am NW 35 41 - - - - - - - 9.0 999.0 24.2
 
Date/Time
EST
Wind Sea
Height
m
Swell Vis
km
Cloud Weather Temp
°C
Press
MSL
hPa
Rain since
9am
mm
Dir  Spd
kts
Gust
kts
Height
m
Period
s
Dir
18/11:30pm NW 35 40 - - - - - - - 9.1 999.0 24.2
18/11:15pm NW 27 36 - - - - - - - 9.1 999.0 24.2
18/11:12pm NW 32 36 - - - - - - - 9.1 - 24.2
18/11:00pm NW 22 29 - - - - - - - 8.2 999.5 24.2
18/10:30pm NW 32 46 - - - - - - - 7.6 999.1 24.2
18/10:29pm NW 34 48 - - - - - - - 7.3 999.1 24.2
18/10:26pm NW 29 39 - - - - - - - 7.3 - 24.2
18/10:25pm NW 40 50 - - - - - - - 7.2 998.7 24.2
18/10:22pm NW 33 39 - - - - - - - 7.2 - 24.2
18/10:19pm NW 37 50 - - - - - - - 7.4 998.0 23.8
18/10:16pm NW 45 50 - - - - - - - 7.4 - 23.8
18/10:07pm NW 33 43 - - - - - - - 8.2 998.1 23.6
18/10:04pm NW 33 43 - - - - - - - 8.2 - 23.6
18/10:00pm NW 31 36 - - - - - - - 8.9 998.4 23.6
18/09:52pm NW 33 39 - - - - - - - 8.7 998.4 23.6
18/09:49pm NW 30 35 - - - - - - - 8.7 - 23.6
18/09:36pm NW 40 53 - - - - - - - 9.4 997.5 23.4
18/09:33pm NW 40 53 - - - - - - - 9.4 - 23.4
18/09:30pm NW 38 44 - - - - - - - 9.7 997.7 23.4
18/09:00pm NW 41 47 - - - - - - - 9.4 997.3 23.4
18/08:44pm NW 35 45 - - - - - - - 9.2 997.2 23.4
18/08:41pm NW 35 45 - - - - - - - 9.2 - 23.4
18/08:30pm NW 35 40 - - - - - - - 9.1 996.9 23.4
18/08:13pm NW 38 48 - - - - - - - 8.1 996.9 23.4
18/08:10pm NW 38 48 - - - - - - - 8.1 - 23.4
18/08:04pm NW 34 47 - - - - - - - 7.2 996.7 23.0
18/08:02pm NW 43 48 - - - - - - - 7.0 - 23.2
18/08:00pm NW 29 40 - - - - - - - 7.8 997.2 22.8
18/07:42pm NW 29 39 - - - - - - - 7.3 997.1 22.8
18/07:39pm NW 29 39 - - - - - - - 7.3 - 22.8
18/07:30pm NW 32 39 - - - - - - - 7.7 996.8 22.6
18/07:25pm NW 36 46 - - - - - - - 8.0 996.4 22.4
18/07:18pm NW 35 39 - - - - - - - 7.9 - 22.4
18/07:05pm NW 44 63 - - - - - - - 6.0 995.7 22.0
18/07:01pm NW 41 63 - - - - - - - 5.3 994.2 21.8
18/07:00pm NW 39 59 - - - - - - - 5.4 994.4 22.0
18/06:59pm NW 37 58 - - - - - - - 5.8 995.5 21.4
18/06:58pm NW 52 63 - - - - - - - 5.3 - 21.8
18/06:57pm NW 51 59 - - - - - - - 5.4 - 21.6
18/06:56pm NW 37 58 - - - - - - - 5.8 - 21.4
18/06:53pm NW 33 45 - - - - - - - 8.1 - 20.2
18/06:44pm NW 36 42 - - - - - - - 7.8 995.9 20.0
18/06:30pm NW 43 49 - - - - - - - 8.0 995.6 19.8
18/06:29pm NW 39 43 - - - - - - - 8.2 - 19.6
18/06:00pm NW 49 54 - - - - - - - 8.3 994.3 19.6
18/05:30pm NW 54 61 - - - - - - - 7.9 993.1 19.4
18/05:29pm NW 53 61 - - - - - - - 8.7 992.9 19.4
18/05:26pm NW 53 61 - - - - - - - 8.7 - 19.4
18/05:00pm NW 59 65 - - - - - - - 8.3 990.6 19.4
18/04:30pm NW 59 67 - - - - - - - 8.3 990.0 19.4
18/04:29pm NW 59 67 - - - - - - - 8.4 - 19.4
18/04:00pm NW 56 69 - - - - - - - 9.5 988.2 19.4
18/03:52pm NW 52 67 - - - - - - - 10.1 987.4 19.4
18/03:49pm NW 56 67 - - - - - - - 10.1 - 19.4
18/03:45pm NW 44 60 - - - - - - - 10.3 987.4 19.4
18/03:42pm NW 44 60 - - - - - - - 10.3 - 19.4
18/03:32pm NW 36 50 - - - - - - - 10.1 989.0 19.4
18/03:30pm NW 35 50 - - - - - - - 10.0 988.8 19.4
18/03:29pm NW 40 50 - - - - - - - 10.1 - 19.4
18/03:27pm NW 43 50 - - - - - - - 10.2 - 19.4
18/03:24pm NW 32 49 - - - - - - - 10.2 - 19.4
18/03:13pm NNW 26 38 - - - - - - - 9.7 989.3 19.2
18/03:10pm NNW 26 38 - - - - - - - 9.7 - 19.2
18/03:00pm NNW 24 33 - - - - - - - 9.5 989.3 19.0
18/02:50pm NNW 23 29 - - - - - - - 9.6 - 18.8
18/02:30pm NW 30 45 - - - - - - - 9.4 989.2 18.4
18/02:16pm NW 30 41 - - - - - - - 11.3 989.5 18.0
18/02:13pm NW 31 41 - - - - - - - 11.3 - 18.0
18/02:12pm NW 26 41 - - - - - - - 11.3 989.2 18.0
18/02:09pm NW 33 41 - - - - - - - 11.3 - 18.0
18/02:08pm NW 23 34 - - - - - - - 11.5 989.5 18.0
18/02:05pm NNW 23 34 - - - - - - - 11.5 - 18.0
18/02:00pm NW 27 34 - - - - - - - 11.9 989.6 18.0
18/01:30pm NNW 21 29 - - - - - - - 11.6 990.0 17.8
18/01:19pm NNW 17 28 - - - - - - - 11.1 - 17.8
18/01:00pm NW 20 30 - - - - - - - 9.9 991.1 17.6
18/12:48pm NW 22 28 - - - - - - - 9.7 991.2 16.2
18/12:30pm NW 30 40 - - - - - - - 9.4 991.4 15.6
18/12:28pm NW 31 40 - - - - - - - 9.1 991.4 15.2
18/12:25pm NW 30 40 - - - - - - - 9.1 - 15.2
18/12:22pm NW 27 40 - - - - - - - 9.7 991.0 14.2
18/12:19pm NW 34 40 - - - - - - - 9.7 - 14.2
18/12:18pm NW 23 34 - - - - - - - 10.4 991.7 12.6
18/12:15pm NW 23 34 - - - - - - - 10.4 - 12.6
18/12:00pm NW 23 29 - - - - - - - 11.0 991.4 11.0
18/11:37am NW 23 33 - - - - - - - 10.6 992.2 10.2
18/11:34am NW 23 33 - - - - - - - 10.6 - 10.2
18/11:30am NW 23 31 - - - - - - - 10.5 992.3 10.0
18/11:01am NNW 19 30 - - - - - - - 10.6 992.5 7.2
18/11:00am NNW 18 27 - - - - - - - 10.5 992.4 7.4
18/10:58am NNW 19 30 - - - - - - - 10.6 - 7.2
18/10:30am NNW 14 19 - - - - - - - 10.4 993.2 6.4
18/10:00am N 10 13 - - - - - - - 9.5 994.2 4.6
18/09:30am NNW 11 15 - - - - - - - 9.6 995.1 2.0
18/09:00am NNW 13 16 1 3.5 14 SW 0.5 Cloudy Drizzle 9.8 995.4 7.2
18/08:30am NW 18 21 - - - - - - - 9.7 996.0 6.0
18/08:00am NW 18 21 - - - - - - - 9.8 996.1 4.2
18/07:36am WNW 19 25 - - - - - - - 9.9 - 2.2
18/07:30am NNW 20 29 - - - - - - - 10.6 995.9 1.2
18/07:05am NNW 24 34 - - - - - - - 11.0 995.6 0.6
18/07:02am NNW 24 34 - - - - - - - 11.0 - 0.6
18/07:00am NNW 25 34 - - - - - - - 11.0 995.6 0.6
18/06:30am NNW 27 34 - - - - - - - 11.3 995.6 0.4
18/06:01am NNW 27 37 - - - - - - - 11.4 995.9 0.4
18/06:00am NNW 28 37 2 2.5 14 SW 1 Cloudy Drizzle 11.2 995.9 0.4
18/05:57am NNW 27 37 - - - - - - - 11.2 995.7 0.4
18/05:54am NNW 27 37 - - - - - - - 11.2 - 0.4
18/05:30am NNW 26 33 - - - - - - - 11.0 996.0 0.4
18/05:09am NNW 27 37 - - - - - - - 11.0 996.1 0.4
18/05:06am NNW 27 37 - - - - - - - 11.0 - 0.4
18/05:00am NNW 27 35 - - - - - - - 10.9 996.6 0.4
18/04:30am NW 30 38 - - - - - - - 11.1 996.6 0.4
18/04:00am NW 30 43 - - - - - - - 11.9 996.1 0.4
18/03:30am NW 31 43 - - - - - - - 11.6 996.6 0.4
18/03:00am NW 30 44 - - - - - - - 11.7 996.7 0.4
18/02:36am NW 29 39 - - - - - - - 11.5 997.3 0.4
18/02:33am NW 29 39 - - - - - - - 11.5 - 0.4
18/02:30am NW 30 39 - - - - - - - 11.5 997.4 0.4
18/02:00am NW 30 40 - - - - - - - 11.3 998.1 0.2
18/01:30am NW 30 41 - - - - - - - 11.6 998.6 0.2
18/01:00am NW 30 42 - - - - - - - 11.6 998.7 0.2
18/12:37am NW 30 40 - - - - - - - 11.7 998.9 0.2
18/12:34am NW 30 40 - - - - - - - 11.7 - 0.2
18/12:30am NW 30 38 - - - - - - - 11.7 998.9 0.2
18/12:00am NW 31 43 - - - - - - - 11.7 999.7 0.2
 
Date/Time
EST
Wind Sea
Height
m
Swell Vis
km
Cloud Weather Temp
°C
Press
MSL
hPa
Rain since
9am
mm
Dir  Spd
kts
Gust
kts
Height
m
Period
s
Dir
17/11:30pm NW 31 42 - - - - - - - 11.7 999.3 0.2
17/11:00pm NW 31 42 - - - - - - - 11.7 999.7 0.2
17/10:30pm NW 29 42 - - - - - - - 11.5 1000.8 0.2
17/10:00pm NW 28 39 - - - - - - - 11.6 1001.6 0.2
17/09:30pm NW 28 42 - - - - - - - 11.8 1002.1 0.2
17/09:07pm NW 28 39 - - - - - - - 12.6 - 0.2
17/09:00pm NW 27 37 - - - - - - - 12.6 1002.4 0.2
17/08:30pm NW 28 43 - - - - - - - 12.0 1002.4 0.2
17/08:23pm NW 25 43 - - - - - - - 12.4 1002.3 0.2
17/08:20pm NW 25 43 - - - - - - - 12.4 - 0.2
17/08:03pm NW 23 33 - - - - - - - 12.6 1003.2 0.0
17/08:00pm NW 25 33 - - - - - - - 12.8 1003.3 0.0
17/07:30pm NW 24 31 - - - - - - - 13.0 1003.9 0.0
17/07:24pm NW 21 31 - - - - - - - 12.7 1003.6 0.0
17/07:21pm NW 26 31 - - - - - - - 12.7 - 0.0
17/07:00pm NNW 17 25 - - - - - - - 12.6 1003.3 0.0
17/06:36pm NNW 17 29 - - - - - - - 12.7 1003.1 0.0
17/06:33pm NNW 17 29 - - - - - - - 12.7 - 0.0
17/06:30pm NNW 18 25 - - - - - - - 12.8 1003.7 0.0
17/06:00pm NNW 15 18 - - - - - - - 11.7 1004.7 0.0
17/05:30pm NW 14 23 - - - - - - - 11.3 1005.4 0.0
17/05:00pm NNW 13 17 - - - - - - - 12.5 1005.5 0.0
17/04:30pm NNW 11 17 - - - - - - - 12.2 1005.7 0.0
17/04:00pm NNE 4 5 - - - - - - - 10.8 1006.4 0.0
17/03:30pm NW 7 11 - - - - - - - 10.7 1007.2 0.0
17/03:00pm NNW 14 20 - - - - - - - 11.9 1007.5 0.0
17/02:30pm N 11 18 - - - - - - - 11.6 1008.3 0.0
17/02:00pm N 8 14 - - - - - - - 11.6 1008.7 0.0
17/01:30pm NNE 8 12 - - - - - - - 10.7 1009.5 0.0
17/01:00pm NW 5 7 - - - - - - - 11.1 1010.3 0.0
17/12:30pm NW 7 9 - - - - - - - 10.2 1011.0 0.0
17/12:00pm N 9 12 - - - - - - - 9.5 1011.5 0.0
17/11:30am NNW 11 14 - - - - - - - 9.1 1012.5 0.0
17/11:00am NW 10 14 - - - - - - - 9.3 1013.1 0.0
17/10:30am NW 12 15 - - - - - - - 9.0 1013.4 0.0
17/10:00am NNW 12 15 - - - - - - - 8.8 1013.7 0.0
17/09:30am NW 11 17 - - - - - - - 8.3 1014.2 0.0
17/09:00am NW 16 21 <0.5 1.5 13 SW 10 Cloudy Fine 8.2 1014.3 0.2
17/08:30am NNW 11 13 - - - - - - - 8.2 1014.3 0.2
17/08:00am NW 12 18 - - - - - - - 8.1 1014.2 0.2
17/07:30am NNW 12 16 - - - - - - - 8.0 1014.2 0.2
17/07:00am NNW 13 18 - - - - - - - 8.0 1014.2 0.2
17/06:30am NNW 17 21 - - - - - - - 7.8 1014.1 0.2
17/06:00am NW 15 19 <0.5 1.5 13 SW 2 Cloudy Mist 8.0 1014.0 0.2
17/05:30am NNW 12 15 - - - - - - - 8.1 1014.3 0.2
17/05:00am NNW 12 17 - - - - - - - 8.0 1014.4 0.2
17/04:30am NW 12 16 - - - - - - - 8.1 1014.7 0.2
17/04:00am NW 12 16 - - - - - - - 8.2 1014.6 0.2
17/03:30am NW 13 16 - - - - - - - 8.2 1014.3 0.2
17/03:00am NW 14 18 - - - - - - - 8.4 1014.5 0.2
17/02:30am NNW 13 18 - - - - - - - 8.4 1014.5 0.2
17/02:00am NW 12 16 - - - - - - - 8.3 1014.7 0.2
17/01:30am NW 12 16 - - - - - - - 8.5 1014.7 0.2
17/01:00am NNW 12 16 - - - - - - - 8.4 1014.5 0.2
17/12:30am NW 16 21 - - - - - - - 8.7 1014.9 0.2
17/12:00am NW 16 19 - - - - - - - 8.4 1014.6 0.2
 
Date/Time
EST
Wind Sea
Height
m
Swell Vis
km
Cloud Weather Temp
°C
Press
MSL
hPa
Rain since
9am
mm
Dir  Spd
kts
Gust
kts
Height
m
Period
s
Dir
16/11:30pm WNW 13 16 - - - - - - - 8.4 1014.9 0.2
16/11:00pm NW 15 19 - - - - - - - 8.3 1015.3 0.2
16/10:30pm NW 14 18 - - - - - - - 8.3 1015.3 0.2
16/10:00pm WNW 12 16 - - - - - - - 8.2 1015.4 0.2
16/09:30pm WNW 13 17 - - - - - - - 8.2 1015.3 0.2
16/09:00pm W 11 15 - - - - - - - 8.1 1015.2 0.2
16/08:30pm W 14 21 - - - - - - - 8.1 1014.9 0.2
16/08:00pm W 15 18 - - - - - - - 8.2 1015.2 0.2
16/07:30pm W 16 19 - - - - - - - 8.2 1015.2 0.2
16/07:00pm W 14 18 - - - - - - - 8.6 1014.6 0.2
16/06:30pm WSW 11 18 - - - - - - - 8.8 1013.7 0.2
16/06:00pm SSW 11 14 - - - - - - - 8.8 1012.7 0.2
16/05:30pm SSW 13 19 - - - - - - - 8.7 1012.0 0.2
16/05:00pm SSW 12 18 - - - - - - - 8.9 1011.6 0.2
16/04:30pm SSW 13 17 - - - - - - - 9.3 1011.1 0.2
16/04:00pm SSW 16 22 - - - - - - - 9.5 1010.8 0.2
16/03:30pm SW 16 20 - - - - - - - 9.6 1010.8 0.2
16/03:00pm SSW 15 25 - - - - - - - 9.6 1010.4 0.2
16/02:55pm SSW 15 25 - - - - - - - 9.7 1010.3 0.2
16/02:52pm SSW 15 25 - - - - - - - 9.7 - 0.2
16/02:30pm SSW 16 21 - - - - - - - 9.7 1010.1 0.2
16/02:00pm SSW 16 22 - - - - - - - 9.7 1009.8 0.2
16/01:30pm SSW 15 20 - - - - - - - 9.8 1009.4 0.2
16/01:00pm SW 18 23 - - - - - - - 9.7 1009.5 0.0
16/12:30pm SW 15 21 - - - - - - - 10.0 1009.1 0.0
16/12:00pm SSW 16 22 - - - - - - - 9.9 1008.6 0.0
16/11:30am SSW 13 17 - - - - - - - 10.2 1008.4 0.0
16/11:00am S 18 22 - - - - - - - 10.0 1007.8 0.0
16/10:30am SSW 15 21 - - - - - - - 9.9 1007.6 0.0
16/10:00am SSW 15 21 - - - - - - - 10.2 1007.3 0.0
16/09:30am S 13 15 - - - - - - - 10.0 1006.3 0.0
16/09:00am S 20 23 1 1.5 13 SW 5 Mostly cloudy Mist 10.2 1006.4 7.0

Other formats

Comma delimited format used in spreadsheet applications
http://www.bom.gov.au/fwo/IDT60701/IDT60701.94962.axf

JavaScript Object Notation format (JSON) in row-major order
http://www.bom.gov.au/fwo/IDT60701/IDT60701.94962.json

Data quality

Most of these data are generated automatically and are frequently updated. Quality checks on data are not normally performed. It is possible for incorrect values to appear. Refer to information at About Latest Weather Observations and please check the disclaimer before using these data.